sensor_id;sensor_type;location;lat;lon;timestamp;pressure;altitude;pressure_sealevel;temperature;humidity
45040;BME280;30778;53.574;7.770;2023-05-10T00:00:15;100723.44;;;12.42;61.20
45040;BME280;30778;53.574;7.770;2023-05-10T00:02:42;100725.28;;;12.40;61.23
45040;BME280;30778;53.574;7.770;2023-05-10T00:05:08;100721.97;;;12.36;61.58
45040;BME280;30778;53.574;7.770;2023-05-10T00:07:33;100718.53;;;12.36;61.33
45040;BME280;30778;53.574;7.770;2023-05-10T00:09:59;100713.97;;;12.39;61.11
45040;BME280;30778;53.574;7.770;2023-05-10T00:12:24;100713.13;;;12.39;61.11
45040;BME280;30778;53.574;7.770;2023-05-10T00:14:50;100713.56;;;12.29;61.26
45040;BME280;30778;53.574;7.770;2023-05-10T00:17:15;100711.72;;;12.32;61.22
45040;BME280;30778;53.574;7.770;2023-05-10T00:19:41;100699.69;;;12.27;61.14
45040;BME280;30778;53.574;7.770;2023-05-10T00:22:06;100702.25;;;12.29;61.38
45040;BME280;30778;53.574;7.770;2023-05-10T00:24:31;100697.84;;;12.29;61.09
45040;BME280;30778;53.574;7.770;2023-05-10T00:26:57;100683.69;;;12.34;61.14
45040;BME280;30778;53.574;7.770;2023-05-10T00:29:23;100687.13;;;12.34;60.95
45040;BME280;30778;53.574;7.770;2023-05-10T00:31:48;100684.59;;;12.33;60.99
45040;BME280;30778;53.574;7.770;2023-05-10T00:34:14;100683.75;;;12.32;60.94
45040;BME280;30778;53.574;7.770;2023-05-10T00:36:39;100679.22;;;12.18;61.43
45040;BME280;30778;53.574;7.770;2023-05-10T00:39:06;100677.50;;;12.35;61.12
45040;BME280;30778;53.574;7.770;2023-05-10T00:41:32;100679.13;;;12.37;61.05
45040;BME280;30778;53.574;7.770;2023-05-10T00:43:59;100679.13;;;12.37;60.96
45040;BME280;30778;53.574;7.770;2023-05-10T00:46:25;100674.63;;;12.39;61.02
45040;BME280;30778;53.574;7.770;2023-05-10T00:48:52;100673.03;;;12.37;61.08
45040;BME280;30778;53.574;7.770;2023-05-10T00:51:17;100672.09;;;12.38;61.06
45040;BME280;30778;53.574;7.770;2023-05-10T00:53:44;100666.94;;;12.36;60.96
45040;BME280;30778;53.574;7.770;2023-05-10T00:56:10;100667.09;;;12.33;60.89
45040;BME280;30778;53.574;7.770;2023-05-10T00:58:36;100660.94;;;12.34;61.05
45040;BME280;30778;53.574;7.770;2023-05-10T01:01:02;100665.16;;;12.37;61.10
45040;BME280;30778;53.574;7.770;2023-05-10T01:03:27;100663.69;;;12.31;61.02
45040;BME280;30778;53.574;7.770;2023-05-10T01:05:53;100650.59;;;12.31;61.24
45040;BME280;30778;53.574;7.770;2023-05-10T01:08:19;100650.81;;;12.26;61.17
45040;BME280;30778;53.574;7.770;2023-05-10T01:10:44;100655.69;;;12.17;61.41
45040;BME280;30778;53.574;7.770;2023-05-10T01:13:11;100651.47;;;12.14;61.89
45040;BME280;30778;53.574;7.770;2023-05-10T01:15:37;100653.31;;;12.12;62.14
45040;BME280;30778;53.574;7.770;2023-05-10T01:18:04;100652.91;;;12.20;61.89
45040;BME280;30778;53.574;7.770;2023-05-10T01:20:36;100661.09;;;12.14;61.86
45040;BME280;30778;53.574;7.770;2023-05-10T01:26:14;100652.38;;;12.31;61.95
45040;BME280;30778;53.574;7.770;2023-05-10T01:28:58;100653.75;;;12.38;61.46
45040;BME280;30778;53.574;7.770;2023-05-10T01:34:34;100652.13;;;12.35;61.02
45040;BME280;30778;53.574;7.770;2023-05-10T01:37:10;100654.75;;;12.35;60.93
45040;BME280;30778;53.574;7.770;2023-05-10T01:40:01;100657.47;;;12.34;61.21
45040;BME280;30778;53.574;7.770;2023-05-10T01:42:36;100657.59;;;12.31;60.94
45040;BME280;30778;53.574;7.770;2023-05-10T01:45:16;100656.38;;;12.38;61.33
45040;BME280;30778;53.574;7.770;2023-05-10T01:47:48;100650.75;;;12.45;61.00
45040;BME280;30778;53.574;7.770;2023-05-10T01:50:18;100657.00;;;12.43;61.27
45040;BME280;30778;53.574;7.770;2023-05-10T01:52:51;100651.59;;;12.46;60.83
45040;BME280;30778;53.574;7.770;2023-05-10T01:55:20;100648.28;;;12.42;60.79
45040;BME280;30778;53.574;7.770;2023-05-10T01:57:56;100647.59;;;12.39;60.81
45040;BME280;30778;53.574;7.770;2023-05-10T02:00:24;100660.00;;;12.35;60.56
45040;BME280;30778;53.574;7.770;2023-05-10T02:02:51;100660.00;;;12.18;61.11
45040;BME280;30778;53.574;7.770;2023-05-10T02:05:18;100666.56;;;12.09;61.39
45040;BME280;30778;53.574;7.770;2023-05-10T02:07:47;100679.34;;;12.15;61.27
45040;BME280;30778;53.574;7.770;2023-05-10T02:10:13;100684.44;;;12.18;60.88
45040;BME280;30778;53.574;7.770;2023-05-10T02:12:41;100680.81;;;12.03;61.76
45040;BME280;30778;53.574;7.770;2023-05-10T02:15:09;100680.72;;;12.05;61.23
45040;BME280;30778;53.574;7.770;2023-05-10T02:17:37;100680.25;;;11.97;61.78
45040;BME280;30778;53.574;7.770;2023-05-10T02:20:05;100674.56;;;12.06;61.58
45040;BME280;30778;53.574;7.770;2023-05-10T02:22:32;100671.34;;;11.82;61.55
45040;BME280;30778;53.574;7.770;2023-05-10T02:24:59;100674.84;;;12.00;61.40
45040;BME280;30778;53.574;7.770;2023-05-10T02:27:27;100677.63;;;11.97;61.19
45040;BME280;30778;53.574;7.770;2023-05-10T02:29:54;100671.63;;;11.95;61.48
45040;BME280;30778;53.574;7.770;2023-05-10T02:32:21;100672.34;;;11.98;61.25
45040;BME280;30778;53.574;7.770;2023-05-10T02:34:48;100683.06;;;12.11;61.26
45040;BME280;30778;53.574;7.770;2023-05-10T02:37:18;100687.91;;;12.19;60.99
45040;BME280;30778;53.574;7.770;2023-05-10T02:39:47;100682.50;;;12.04;61.01
45040;BME280;30778;53.574;7.770;2023-05-10T02:42:16;100681.03;;;12.16;60.61
45040;BME280;30778;53.574;7.770;2023-05-10T02:44:43;100681.03;;;12.16;60.74
45040;BME280;30778;53.574;7.770;2023-05-10T02:47:10;100676.81;;;12.14;60.94
45040;BME280;30778;53.574;7.770;2023-05-10T02:49:36;100674.25;;;12.12;60.85
45040;BME280;30778;53.574;7.770;2023-05-10T02:52:05;100675.81;;;12.16;60.73
45040;BME280;30778;53.574;7.770;2023-05-10T02:54:34;100680.28;;;12.14;60.76
45040;BME280;30778;53.574;7.770;2023-05-10T02:57:04;100679.03;;;12.04;60.79
45040;BME280;30778;53.574;7.770;2023-05-10T02:59:30;100679.97;;;12.03;60.80
45040;BME280;30778;53.574;7.770;2023-05-10T03:01:59;100672.56;;;11.94;60.93
45040;BME280;30778;53.574;7.770;2023-05-10T03:04:25;100671.28;;;11.83;60.61
45040;BME280;30778;53.574;7.770;2023-05-10T03:06:53;100663.72;;;11.77;60.90
45040;BME280;30778;53.574;7.770;2023-05-10T03:09:19;100661.47;;;11.70;61.08
45040;BME280;30778;53.574;7.770;2023-05-10T03:12:11;100664.03;;;11.71;60.85
45040;BME280;30778;53.574;7.770;2023-05-10T03:15:03;100657.06;;;11.70;60.92
45040;BME280;30778;53.574;7.770;2023-05-10T03:17:46;100663.59;;;11.61;60.99
45040;BME280;30778;53.574;7.770;2023-05-10T03:20:35;100663.47;;;11.64;60.67
45040;BME280;30778;53.574;7.770;2023-05-10T03:23:07;100668.75;;;11.63;61.02
45040;BME280;30778;53.574;7.770;2023-05-10T03:25:37;100660.75;;;11.66;60.78
45040;BME280;30778;53.574;7.770;2023-05-10T03:28:05;100661.81;;;11.62;60.76
45040;BME280;30778;53.574;7.770;2023-05-10T03:30:32;100660.63;;;11.50;61.20
45040;BME280;30778;53.574;7.770;2023-05-10T03:33:04;100668.75;;;11.63;60.94
45040;BME280;30778;53.574;7.770;2023-05-10T03:35:30;100670.31;;;11.67;60.83
45040;BME280;30778;53.574;7.770;2023-05-10T03:37:55;100673.94;;;11.64;60.74
45040;BME280;30778;53.574;7.770;2023-05-10T03:40:21;100676.47;;;11.66;60.66
45040;BME280;30778;53.574;7.770;2023-05-10T03:42:48;100669.25;;;11.71;60.78
45040;BME280;30778;53.574;7.770;2023-05-10T03:45:14;100672.50;;;11.76;60.84
45040;BME280;30778;53.574;7.770;2023-05-10T03:47:39;100674.69;;;11.85;60.75
45040;BME280;30778;53.574;7.770;2023-05-10T03:50:06;100676.31;;;11.88;60.62
45040;BME280;30778;53.574;7.770;2023-05-10T03:52:32;100673.63;;;11.90;60.74
45040;BME280;30778;53.574;7.770;2023-05-10T03:54:58;100668.94;;;11.96;60.62
45040;BME280;30778;53.574;7.770;2023-05-10T03:57:23;100664.06;;;11.88;60.47
45040;BME280;30778;53.574;7.770;2023-05-10T03:59:49;100658.59;;;11.93;60.52
45040;BME280;30778;53.574;7.770;2023-05-10T04:02:16;100656.97;;;11.91;60.19
45040;BME280;30778;53.574;7.770;2023-05-10T04:04:41;100647.88;;;11.80;60.32
45040;BME280;30778;53.574;7.770;2023-05-10T04:07:07;100647.88;;;11.80;60.18
45040;BME280;30778;53.574;7.770;2023-05-10T04:09:33;100646.09;;;11.62;60.70
45040;BME280;30778;53.574;7.770;2023-05-10T04:11:59;100652.13;;;11.64;60.87
45040;BME280;30778;53.574;7.770;2023-05-10T04:14:25;100659.75;;;11.68;60.71
45040;BME280;30778;53.574;7.770;2023-05-10T04:16:51;100656.16;;;11.71;60.19
45040;BME280;30778;53.574;7.770;2023-05-10T04:19:16;100656.75;;;11.59;60.65
45040;BME280;30778;53.574;7.770;2023-05-10T04:21:42;100660.63;;;11.69;60.90
45040;BME280;30778;53.574;7.770;2023-05-10T04:24:07;100657.78;;;11.55;60.93
45040;BME280;30778;53.574;7.770;2023-05-10T04:26:33;100662.28;;;11.15;61.45
45040;BME280;30778;53.574;7.770;2023-05-10T04:28:58;100665.75;;;11.34;61.32
45040;BME280;30778;53.574;7.770;2023-05-10T04:31:24;100667.72;;;11.48;61.08
45040;BME280;30778;53.574;7.770;2023-05-10T04:33:49;100668.78;;;11.44;60.67
45040;BME280;30778;53.574;7.770;2023-05-10T04:36:15;100679.41;;;11.22;61.17
45040;BME280;30778;53.574;7.770;2023-05-10T04:38:40;100670.13;;;11.34;61.06
45040;BME280;30778;53.574;7.770;2023-05-10T04:41:07;100666.72;;;10.94;61.73
45040;BME280;30778;53.574;7.770;2023-05-10T04:43:33;100672.47;;;11.21;61.14
45040;BME280;30778;53.574;7.770;2023-05-10T04:45:58;100673.66;;;11.14;61.45
45040;BME280;30778;53.574;7.770;2023-05-10T04:48:24;100676.38;;;11.31;60.67
45040;BME280;30778;53.574;7.770;2023-05-10T04:50:49;100677.06;;;11.16;60.74
45040;BME280;30778;53.574;7.770;2023-05-10T04:53:15;100677.06;;;11.35;60.71
45040;BME280;30778;53.574;7.770;2023-05-10T04:55:40;100682.28;;;11.16;60.84
45040;BME280;30778;53.574;7.770;2023-05-10T04:58:06;100678.75;;;10.98;61.51
45040;BME280;30778;53.574;7.770;2023-05-10T05:00:32;100686.38;;;11.02;61.16
45040;BME280;30778;53.574;7.770;2023-05-10T05:02:58;100684.56;;;10.63;61.73
45040;BME280;30778;53.574;7.770;2023-05-10T05:05:23;100688.88;;;10.64;61.69
45040;BME280;30778;53.574;7.770;2023-05-10T05:07:49;100691.56;;;10.63;61.35
45040;BME280;30778;53.574;7.770;2023-05-10T05:10:15;100688.94;;;10.63;60.92
45040;BME280;30778;53.574;7.770;2023-05-10T05:12:41;100696.06;;;10.80;60.90
45040;BME280;30778;53.574;7.770;2023-05-10T05:15:07;100694.75;;;10.49;61.22
45040;BME280;30778;53.574;7.770;2023-05-10T05:17:35;100695.84;;;10.86;60.84
45040;BME280;30778;53.574;7.770;2023-05-10T05:20:01;100693.72;;;10.94;60.53
45040;BME280;30778;53.574;7.770;2023-05-10T05:22:26;100697.31;;;10.92;60.64
45040;BME280;30778;53.574;7.770;2023-05-10T05:24:54;100694.22;;;11.02;60.34
45040;BME280;30778;53.574;7.770;2023-05-10T05:27:20;100697.69;;;11.03;60.20
45040;BME280;30778;53.574;7.770;2023-05-10T05:29:53;100702.94;;;11.22;59.91
45040;BME280;30778;53.574;7.770;2023-05-10T05:32:24;100705.78;;;11.36;59.90
45040;BME280;30778;53.574;7.770;2023-05-10T05:34:51;100706.84;;;10.93;60.26
45040;BME280;30778;53.574;7.770;2023-05-10T05:37:18;100709.97;;;11.01;59.91
45040;BME280;30778;53.574;7.770;2023-05-10T05:39:44;100707.03;;;10.68;60.50
45040;BME280;30778;53.574;7.770;2023-05-10T05:42:10;100714.78;;;10.91;60.10
45040;BME280;30778;53.574;7.770;2023-05-10T05:44:36;100717.88;;;10.79;60.57
45040;BME280;30778;53.574;7.770;2023-05-10T05:47:02;100723.66;;;10.87;60.23
45040;BME280;30778;53.574;7.770;2023-05-10T05:49:29;100726.41;;;11.04;59.88
45040;BME280;30778;53.574;7.770;2023-05-10T05:51:58;100724.84;;;11.19;59.73
45040;BME280;30778;53.574;7.770;2023-05-10T05:54:23;100722.69;;;11.29;59.82
45040;BME280;30778;53.574;7.770;2023-05-10T05:56:49;100726.44;;;11.42;59.53
45040;BME280;30778;53.574;7.770;2023-05-10T05:59:14;100726.56;;;11.39;58.98
45040;BME280;30778;53.574;7.770;2023-05-10T06:01:40;100722.59;;;11.50;59.09
45040;BME280;30778;53.574;7.770;2023-05-10T06:04:06;100728.97;;;11.25;59.37
45040;BME280;30778;53.574;7.770;2023-05-10T06:06:32;100721.81;;;11.48;59.27
45040;BME280;30778;53.574;7.770;2023-05-10T06:08:57;100737.25;;;11.54;58.96
45040;BME280;30778;53.574;7.770;2023-05-10T06:11:23;100725.91;;;11.15;58.90
45040;BME280;30778;53.574;7.770;2023-05-10T06:13:49;100736.44;;;11.33;58.98
45040;BME280;30778;53.574;7.770;2023-05-10T06:16:15;100731.50;;;11.45;59.47
45040;BME280;30778;53.574;7.770;2023-05-10T06:18:40;100720.63;;;11.36;59.20
45040;BME280;30778;53.574;7.770;2023-05-10T06:21:06;100726.28;;;11.45;59.19
45040;BME280;30778;53.574;7.770;2023-05-10T06:23:32;100731.09;;;10.96;59.28
45040;BME280;30778;53.574;7.770;2023-05-10T06:25:58;100727.75;;;11.13;59.29
45040;BME280;30778;53.574;7.770;2023-05-10T06:28:24;100726.97;;;11.30;59.01
45040;BME280;30778;53.574;7.770;2023-05-10T06:30:50;100727.91;;;11.29;58.94
45040;BME280;30778;53.574;7.770;2023-05-10T06:33:15;100741.56;;;11.55;58.30
45040;BME280;30778;53.574;7.770;2023-05-10T06:35:41;100731.94;;;11.74;58.47
45040;BME280;30778;53.574;7.770;2023-05-10T06:38:07;100740.72;;;11.73;57.54
45040;BME280;30778;53.574;7.770;2023-05-10T06:40:33;100738.19;;;12.08;58.12
45040;BME280;30778;53.574;7.770;2023-05-10T06:42:58;100735.78;;;12.22;56.75
45040;BME280;30778;53.574;7.770;2023-05-10T06:45:27;100740.31;;;12.19;57.13
45040;BME280;30778;53.574;7.770;2023-05-10T06:47:52;100746.56;;;12.16;56.23
45040;BME280;30778;53.574;7.770;2023-05-10T06:50:19;100748.09;;;12.38;57.34
45040;BME280;30778;53.574;7.770;2023-05-10T06:52:44;100759.22;;;12.60;56.79
45040;BME280;30778;53.574;7.770;2023-05-10T06:55:10;100751.16;;;12.28;56.13
45040;BME280;30778;53.574;7.770;2023-05-10T06:57:36;100757.53;;;12.05;56.48
45040;BME280;30778;53.574;7.770;2023-05-10T07:00:02;100751.34;;;12.25;56.23
45040;BME280;30778;53.574;7.770;2023-05-10T07:02:29;100755.22;;;12.36;56.58
45040;BME280;30778;53.574;7.770;2023-05-10T07:04:55;100759.09;;;12.10;55.76
45040;BME280;30778;53.574;7.770;2023-05-10T07:07:20;100763.44;;;12.28;55.79
45040;BME280;30778;53.574;7.770;2023-05-10T07:09:46;100765.22;;;12.27;55.56
45040;BME280;30778;53.574;7.770;2023-05-10T07:12:12;100765.22;;;11.33;57.08
45040;BME280;30778;53.574;7.770;2023-05-10T07:14:40;100769.81;;;11.67;56.18
45040;BME280;30778;53.574;7.770;2023-05-10T07:17:15;100770.44;;;11.72;56.94
45040;BME280;30778;53.574;7.770;2023-05-10T07:19:41;100767.03;;;11.70;56.63
45040;BME280;30778;53.574;7.770;2023-05-10T07:22:11;100774.31;;;11.63;56.72
45040;BME280;30778;53.574;7.770;2023-05-10T07:24:37;100777.94;;;11.61;56.24
45040;BME280;30778;53.574;7.770;2023-05-10T07:27:03;100776.44;;;11.74;55.94
45040;BME280;30778;53.574;7.770;2023-05-10T07:29:33;100779.84;;;11.76;55.96
45040;BME280;30778;53.574;7.770;2023-05-10T07:32:00;100775.81;;;11.69;56.36
45040;BME280;30778;53.574;7.770;2023-05-10T07:34:28;100769.72;;;11.68;56.61
45040;BME280;30778;53.574;7.770;2023-05-10T07:36:57;100776.38;;;11.95;56.22
45040;BME280;30778;53.574;7.770;2023-05-10T07:39:26;100775.03;;;12.05;56.06
45040;BME280;30778;53.574;7.770;2023-05-10T07:41:52;100770.44;;;11.72;56.43
45040;BME280;30778;53.574;7.770;2023-05-10T07:44:17;100771.25;;;12.11;56.58
45040;BME280;30778;53.574;7.770;2023-05-10T07:46:46;100776.16;;;12.18;56.14
45040;BME280;30778;53.574;7.770;2023-05-10T07:49:14;100775.41;;;12.51;55.90
45040;BME280;30778;53.574;7.770;2023-05-10T07:51:40;100776.94;;;12.55;54.23
45040;BME280;30778;53.574;7.770;2023-05-10T07:54:07;100781.56;;;12.50;54.79
45040;BME280;30778;53.574;7.770;2023-05-10T07:56:33;100781.72;;;12.64;54.68
45040;BME280;30778;53.574;7.770;2023-05-10T07:58:59;100792.25;;;12.82;54.24
45040;BME280;30778;53.574;7.770;2023-05-10T08:01:26;100787.63;;;12.69;54.14
45040;BME280;30778;53.574;7.770;2023-05-10T08:03:51;100792.66;;;12.74;54.60
45040;BME280;30778;53.574;7.770;2023-05-10T08:06:20;100797.97;;;12.73;53.97
45040;BME280;30778;53.574;7.770;2023-05-10T08:08:48;100797.31;;;12.67;54.68
45040;BME280;30778;53.574;7.770;2023-05-10T08:11:19;100805.44;;;12.98;54.07
45040;BME280;30778;53.574;7.770;2023-05-10T08:13:54;100804.72;;;12.59;54.68
45040;BME280;30778;53.574;7.770;2023-05-10T08:16:20;100812.84;;;12.72;53.69
45040;BME280;30778;53.574;7.770;2023-05-10T08:18:47;100814.84;;;13.02;54.38
45040;BME280;30778;53.574;7.770;2023-05-10T08:21:17;100815.72;;;12.85;54.17
45040;BME280;30778;53.574;7.770;2023-05-10T08:23:43;100811.31;;;13.03;53.49
45040;BME280;30778;53.574;7.770;2023-05-10T08:26:11;100809.63;;;13.35;53.12
45040;BME280;30778;53.574;7.770;2023-05-10T08:28:41;100809.13;;;13.62;53.13
45040;BME280;30778;53.574;7.770;2023-05-10T08:31:07;100815.66;;;13.86;51.94
45040;BME280;30778;53.574;7.770;2023-05-10T08:33:32;100813.59;;;13.60;51.20
45040;BME280;30778;53.574;7.770;2023-05-10T08:35:58;100821.28;;;13.63;51.61
45040;BME280;30778;53.574;7.770;2023-05-10T08:38:26;100816.59;;;13.85;50.73
45040;BME280;30778;53.574;7.770;2023-05-10T08:40:54;100818.88;;;13.42;52.80
45040;BME280;30778;53.574;7.770;2023-05-10T08:43:22;100820.78;;;13.23;52.48
45040;BME280;30778;53.574;7.770;2023-05-10T08:45:56;100819.13;;;13.20;53.81
45040;BME280;30778;53.574;7.770;2023-05-10T08:48:25;100820.69;;;13.07;52.99
45040;BME280;30778;53.574;7.770;2023-05-10T08:51:00;100826.44;;;13.31;52.83
45040;BME280;30778;53.574;7.770;2023-05-10T08:53:28;100829.94;;;13.65;52.31
45040;BME280;30778;53.574;7.770;2023-05-10T08:55:55;100827.69;;;13.75;53.12
45040;BME280;30778;53.574;7.770;2023-05-10T08:58:21;100826.16;;;13.86;52.71
45040;BME280;30778;53.574;7.770;2023-05-10T09:00:49;100829.38;;;13.91;52.61
45040;BME280;30778;53.574;7.770;2023-05-10T09:03:22;100842.88;;;13.52;52.56
45040;BME280;30778;53.574;7.770;2023-05-10T09:05:49;100837.94;;;13.46;53.15
45040;BME280;30778;53.574;7.770;2023-05-10T09:08:15;100850.38;;;13.25;53.62
45040;BME280;30778;53.574;7.770;2023-05-10T09:10:43;100860.75;;;13.28;52.91
45040;BME280;30778;53.574;7.770;2023-05-10T09:13:13;100850.72;;;13.19;52.02
45040;BME280;30778;53.574;7.770;2023-05-10T09:15:39;100855.13;;;13.51;52.97
45040;BME280;30778;53.574;7.770;2023-05-10T09:18:14;100855.91;;;13.87;52.28
45040;BME280;30778;53.574;7.770;2023-05-10T09:20:43;100850.59;;;14.04;51.14
45040;BME280;30778;53.574;7.770;2023-05-10T09:23:08;100860.94;;;14.23;50.68
45040;BME280;30778;53.574;7.770;2023-05-10T09:25:34;100857.81;;;14.17;51.57
45040;BME280;30778;53.574;7.770;2023-05-10T09:28:00;100857.19;;;14.27;51.28
45040;BME280;30778;53.574;7.770;2023-05-10T09:30:30;100856.78;;;14.19;51.26
45040;BME280;30778;53.574;7.770;2023-05-10T09:32:57;100865.75;;;13.83;51.66
45040;BME280;30778;53.574;7.770;2023-05-10T09:35:25;100868.16;;;13.37;52.43
45040;BME280;30778;53.574;7.770;2023-05-10T09:37:53;100866.72;;;13.65;52.67
45040;BME280;30778;53.574;7.770;2023-05-10T09:40:23;100876.63;;;13.60;52.43
45040;BME280;30778;53.574;7.770;2023-05-10T09:42:56;100876.44;;;13.63;52.48
45040;BME280;30778;53.574;7.770;2023-05-10T09:45:24;100876.09;;;13.86;52.37
45040;BME280;30778;53.574;7.770;2023-05-10T09:47:51;100884.16;;;13.83;51.26
45040;BME280;30778;53.574;7.770;2023-05-10T09:50:16;100882.91;;;13.73;52.72
45040;BME280;30778;53.574;7.770;2023-05-10T09:52:57;100886.31;;;13.75;53.13
45040;BME280;30778;53.574;7.770;2023-05-10T09:55:38;100880.00;;;14.11;52.04
45040;BME280;30778;53.574;7.770;2023-05-10T09:58:05;100884.41;;;14.58;52.11
45040;BME280;30778;53.574;7.770;2023-05-10T10:00:36;100889.88;;;14.85;50.27
45040;BME280;30778;53.574;7.770;2023-05-10T10:03:02;100890.31;;;15.08;50.20
45040;BME280;30778;53.574;7.770;2023-05-10T10:07:56;100887.47;;;14.96;49.79
45040;BME280;30778;53.574;7.770;2023-05-10T10:10:25;100875.56;;;15.05;49.50
45040;BME280;30778;53.574;7.770;2023-05-10T10:12:54;100882.75;;;15.17;49.56
45040;BME280;30778;53.574;7.770;2023-05-10T10:15:24;100886.28;;;15.02;48.53
45040;BME280;30778;53.574;7.770;2023-05-10T10:17:55;100887.06;;;14.58;50.21
45040;BME280;30778;53.574;7.770;2023-05-10T10:20:24;100890.09;;;14.66;50.06
45040;BME280;30778;53.574;7.770;2023-05-10T10:22:57;100891.44;;;14.73;49.51
45040;BME280;30778;53.574;7.770;2023-05-10T10:25:25;100891.13;;;14.64;49.09
45040;BME280;30778;53.574;7.770;2023-05-10T10:30:46;100913.75;;;13.69;51.77
45040;BME280;30778;53.574;7.770;2023-05-10T10:36:00;100915.25;;;13.91;51.11
45040;BME280;30778;53.574;7.770;2023-05-10T10:41:35;100921.25;;;13.60;52.65
45040;BME280;30778;53.574;7.770;2023-05-10T10:52:39;100945.59;;;11.37;56.79
45040;BME280;30778;53.574;7.770;2023-05-10T10:55:06;100947.31;;;10.96;57.84
45040;BME280;30778;53.574;7.770;2023-05-10T10:57:51;100947.63;;;11.51;57.31
45040;BME280;30778;53.574;7.770;2023-05-10T11:00:47;100956.84;;;11.39;57.25
45040;BME280;30778;53.574;7.770;2023-05-10T11:03:13;100955.78;;;11.23;57.70
45040;BME280;30778;53.574;7.770;2023-05-10T11:05:46;100953.38;;;10.96;57.97
45040;BME280;30778;53.574;7.770;2023-05-10T11:08:19;100968.72;;;11.05;58.50
45040;BME280;30778;53.574;7.770;2023-05-10T11:11:05;100970.81;;;10.97;58.30
45040;BME280;30778;53.574;7.770;2023-05-10T11:13:45;100979.03;;;10.64;58.72
45040;BME280;30778;53.574;7.770;2023-05-10T11:21:24;100977.16;;;11.12;58.21
45040;BME280;30778;53.574;7.770;2023-05-10T11:23:54;100985.75;;;11.16;58.11
45040;BME280;30778;53.574;7.770;2023-05-10T11:26:37;100976.75;;;11.64;58.20
45040;BME280;30778;53.574;7.770;2023-05-10T11:29:24;100973.81;;;11.51;58.00
45040;BME280;30778;53.574;7.770;2023-05-10T11:31:57;100987.50;;;11.58;57.40
45040;BME280;30778;53.574;7.770;2023-05-10T11:34:30;100984.53;;;11.65;57.66
45040;BME280;30778;53.574;7.770;2023-05-10T11:37:02;100978.97;;;11.53;57.56
45040;BME280;30778;53.574;7.770;2023-05-10T11:39:49;100992.84;;;11.75;57.15
45040;BME280;30778;53.574;7.770;2023-05-10T11:42:15;100996.81;;;11.22;57.65
45040;BME280;30778;53.574;7.770;2023-05-10T11:44:40;101004.47;;;11.27;58.01
45040;BME280;30778;53.574;7.770;2023-05-10T11:47:07;101001.94;;;11.46;57.88
45040;BME280;30778;53.574;7.770;2023-05-10T11:49:33;101003.03;;;11.20;57.82
45040;BME280;30778;53.574;7.770;2023-05-10T11:52:08;101006.91;;;11.32;57.72
45040;BME280;30778;53.574;7.770;2023-05-10T11:54:36;101009.13;;;11.83;57.45
45040;BME280;30778;53.574;7.770;2023-05-10T11:57:03;101012.72;;;11.38;57.75
45040;BME280;30778;53.574;7.770;2023-05-10T11:59:28;101019.31;;;11.69;56.76
45040;BME280;30778;53.574;7.770;2023-05-10T12:01:54;101018.72;;;11.62;56.97
45040;BME280;30778;53.574;7.770;2023-05-10T12:04:20;101022.94;;;11.87;56.94
45040;BME280;30778;53.574;7.770;2023-05-10T12:06:46;101024.75;;;12.05;56.97
45040;BME280;30778;53.574;7.770;2023-05-10T12:09:14;101041.78;;;12.16;56.52
45040;BME280;30778;53.574;7.770;2023-05-10T12:11:41;101035.03;;;12.10;57.24
45040;BME280;30778;53.574;7.770;2023-05-10T12:14:11;101038.13;;;11.79;57.20
45040;BME280;30778;53.574;7.770;2023-05-10T12:16:37;101047.16;;;11.92;57.25
45040;BME280;30778;53.574;7.770;2023-05-10T12:19:03;101055.28;;;11.64;57.24
45040;BME280;30778;53.574;7.770;2023-05-10T12:21:29;101048.66;;;11.77;57.71
45040;BME280;30778;53.574;7.770;2023-05-10T12:24:02;101051.84;;;11.84;57.45
45040;BME280;30778;53.574;7.770;2023-05-10T12:26:29;101054.59;;;11.38;58.09
45040;BME280;30778;53.574;7.770;2023-05-10T12:28:55;101064.19;;;11.60;57.66
45040;BME280;30778;53.574;7.770;2023-05-10T12:31:20;101064.69;;;11.48;58.26
45040;BME280;30778;53.574;7.770;2023-05-10T12:33:46;101069.94;;;11.48;57.66
45040;BME280;30778;53.574;7.770;2023-05-10T12:36:15;101075.47;;;11.40;58.54
45040;BME280;30778;53.574;7.770;2023-05-10T12:38:43;101073.34;;;11.28;58.71
45040;BME280;30778;53.574;7.770;2023-05-10T12:41:10;101071.13;;;11.61;57.62
45040;BME280;30778;53.574;7.770;2023-05-10T12:43:37;101080.91;;;11.13;58.71
45040;BME280;30778;53.574;7.770;2023-05-10T12:48:31;101091.25;;;10.93;59.21
45040;BME280;30778;53.574;7.770;2023-05-10T12:50:58;101091.28;;;11.15;58.42
45040;BME280;30778;53.574;7.770;2023-05-10T12:53:24;101091.91;;;11.43;58.39
45040;BME280;30778;53.574;7.770;2023-05-10T12:55:49;101089.88;;;11.28;57.97
45040;BME280;30778;53.574;7.770;2023-05-10T12:58:17;101096.28;;;11.65;58.09
45040;BME280;30778;53.574;7.770;2023-05-10T13:00:42;101094.88;;;11.78;57.14
45040;BME280;30778;53.574;7.770;2023-05-10T13:03:09;101106.06;;;11.82;56.65
45040;BME280;30778;53.574;7.770;2023-05-10T13:05:58;101105.22;;;11.81;56.57
45040;BME280;30778;53.574;7.770;2023-05-10T13:08:26;101115.16;;;12.16;56.70
45040;BME280;30778;53.574;7.770;2023-05-10T13:10:51;101115.97;;;12.37;56.11
45040;BME280;30778;53.574;7.770;2023-05-10T13:13:17;101121.22;;;12.37;55.50
45040;BME280;30778;53.574;7.770;2023-05-10T13:15:45;101117.03;;;11.92;56.33
45040;BME280;30778;53.574;7.770;2023-05-10T13:18:11;101118.03;;;12.49;55.26
45040;BME280;30778;53.574;7.770;2023-05-10T13:20:38;101119.84;;;12.88;54.69
45040;BME280;30778;53.574;7.770;2023-05-10T13:23:06;101115.28;;;13.10;53.56
45040;BME280;30778;53.574;7.770;2023-05-10T13:25:34;101111.69;;;13.49;52.78
45040;BME280;30778;53.574;7.770;2023-05-10T13:27:59;101110.78;;;13.50;52.56